createdAt,value
2017-07-31T00:01:24.507Z,100083.02
2017-07-31T00:03:53.575Z,100094.05
2017-07-31T00:06:22.631Z,100085.61
2017-07-31T00:08:51.678Z,100089.34
2017-07-31T00:11:20.740Z,100091.87
2017-07-31T00:13:49.847Z,100105.55
2017-07-31T00:16:19.037Z,100101.45
2017-07-31T00:18:48.079Z,100111.34
2017-07-31T00:21:17.138Z,100107.59
2017-07-31T00:23:46.217Z,100109.21
2017-07-31T00:26:15.514Z,100106.48
2017-07-31T00:28:44.592Z,100108.88
2017-07-31T00:31:13.712Z,100092.33
2017-07-31T00:33:42.815Z,100080.34
2017-07-31T00:36:11.872Z,100086.25
2017-07-31T00:38:40.928Z,100085.83
2017-07-31T00:41:09.977Z,100073.42
2017-07-31T00:43:39.039Z,100071.67
2017-07-31T00:46:08.079Z,100071.13
2017-07-31T00:48:37.146Z,100073.84
2017-07-31T00:51:06.179Z,100071.45
2017-07-31T00:53:35.249Z,100064.75
2017-07-31T00:56:04.363Z,100087.41
2017-07-31T00:58:33.423Z,100081.52
2017-07-31T01:01:02.704Z,100083.70
2017-07-31T01:03:31.782Z,100094.53
2017-07-31T01:06:00.867Z,100097.87
2017-07-31T01:08:29.877Z,100105.95
2017-07-31T01:10:58.935Z,100104.55
2017-07-31T01:13:28.023Z,100095.09
2017-07-31T01:15:57.085Z,100086.62
2017-07-31T01:18:26.344Z,100089.97
2017-07-31T01:20:55.380Z,100086.78
2017-07-31T01:23:24.450Z,100091.31
2017-07-31T01:25:53.529Z,100087.38
2017-07-31T01:28:22.598Z,100086.75
2017-07-31T01:30:51.670Z,100091.02
2017-07-31T01:33:20.751Z,100097.48
2017-07-31T01:35:49.826Z,100092.51
2017-07-31T01:38:18.867Z,100092.66
2017-07-31T01:40:47.933Z,100095.58
2017-07-31T01:43:17.002Z,100094.19
2017-07-31T01:45:46.071Z,100085.02
2017-07-31T01:48:15.144Z,100091.06
2017-07-31T01:50:44.194Z,100090.03
2017-07-31T01:53:13.265Z,100089.00
2017-07-31T01:55:42.324Z,100090.32
2017-07-31T01:58:11.385Z,100087.31
2017-07-31T02:00:40.453Z,100089.06
2017-07-31T02:03:09.552Z,100092.17
2017-07-31T02:05:38.621Z,100084.23
2017-07-31T02:08:07.943Z,100081.43
2017-07-31T02:10:37.001Z,100076.49
2017-07-31T02:13:06.067Z,100077.30
2017-07-31T02:15:35.163Z,100067.45
2017-07-31T02:18:04.364Z,100067.80
2017-07-31T02:20:33.552Z,100065.23
2017-07-31T02:23:02.614Z,100069.49
2017-07-31T02:25:31.647Z,100060.59
2017-07-31T02:28:00.734Z,100068.43
2017-07-31T02:30:29.759Z,100071.62
2017-07-31T02:32:58.834Z,100079.41
2017-07-31T02:35:27.872Z,100085.67
2017-07-31T02:37:56.939Z,100098.37
2017-07-31T02:40:26.014Z,100101.45
2017-07-31T02:42:55.072Z,100104.95
2017-07-31T02:45:24.155Z,100111.16
2017-07-31T02:47:53.198Z,100107.45
2017-07-31T02:50:22.271Z,100105.41
2017-07-31T02:52:51.337Z,100106.77
2017-07-31T02:55:20.652Z,100108.13
2017-07-31T02:57:49.690Z,100122.78
2017-07-31T03:00:18.755Z,100122.19
2017-07-31T03:02:48.009Z,100123.28
2017-07-31T03:05:17.050Z,100123.05
2017-07-31T03:07:46.108Z,100118.08
2017-07-31T03:10:15.178Z,100123.17
2017-07-31T03:12:44.221Z,100112.75
2017-07-31T03:15:13.311Z,100120.83
2017-07-31T03:17:42.381Z,100129.83
2017-07-31T03:20:11.439Z,100133.12
2017-07-31T03:22:41.143Z,100133.80
2017-07-31T03:25:10.218Z,100130.47
2017-07-31T03:27:39.273Z,100135.37
2017-07-31T03:30:08.357Z,100136.73
2017-07-31T03:32:37.382Z,100139.47
2017-07-31T03:35:06.484Z,100137.91
2017-07-31T03:37:35.518Z,100136.89
2017-07-31T03:40:04.616Z,100133.29
2017-07-31T03:42:33.671Z,100131.21
2017-07-31T03:45:02.966Z,100134.73
2017-07-31T03:47:31.994Z,100134.78
2017-07-31T03:50:01.063Z,100133.58
2017-07-31T03:52:30.107Z,100135.85
2017-07-31T03:54:59.194Z,100142.43
2017-07-31T03:57:28.444Z,100144.22
2017-07-31T03:59:57.532Z,100153.30
2017-07-31T04:02:26.624Z,100148.59
2017-07-31T04:04:55.696Z,100152.51
2017-07-31T04:07:24.755Z,100154.81
2017-07-31T04:09:53.804Z,100159.88
2017-07-31T04:12:22.930Z,100156.92
2017-07-31T04:14:51.984Z,100151.82
2017-07-31T04:17:21.033Z,100157.92
2017-07-31T04:19:50.094Z,100153.22
2017-07-31T04:22:19.168Z,100156.17
2017-07-31T04:24:48.227Z,100154.63
2017-07-31T04:27:17.296Z,100153.13
2017-07-31T04:29:46.364Z,100156.29
2017-07-31T04:32:15.640Z,100149.30
2017-07-31T04:34:44.679Z,100149.58
2017-07-31T04:37:13.747Z,100155.20
2017-07-31T04:39:42.828Z,100152.31
2017-07-31T04:42:11.890Z,100163.73
2017-07-31T04:44:40.953Z,100162.55
2017-07-31T04:47:10.034Z,100170.03
2017-07-31T04:49:39.047Z,100164.58
2017-07-31T04:52:08.144Z,100169.24
2017-07-31T04:54:37.184Z,100166.49
2017-07-31T04:57:06.239Z,100163.74
2017-07-31T04:59:35.299Z,100167.85
2017-07-31T05:02:04.388Z,100162.20
2017-07-31T05:04:33.431Z,100162.03
2017-07-31T05:07:02.496Z,100165.59
2017-07-31T05:09:31.551Z,100165.61
2017-07-31T05:12:00.600Z,100165.09
2017-07-31T05:14:29.640Z,100167.33
2017-07-31T05:16:58.720Z,100164.47
2017-07-31T05:19:27.771Z,100161.73
2017-07-31T05:21:56.817Z,100165.71
2017-07-31T05:24:25.872Z,100167.30
2017-07-31T05:26:54.946Z,100158.98
2017-07-31T05:29:24.044Z,100150.77
2017-07-31T05:31:53.134Z,100158.45
2017-07-31T05:34:22.152Z,100162.39
2017-07-31T05:36:51.223Z,100158.34
2017-07-31T05:39:20.313Z,100163.48
2017-07-31T05:41:49.347Z,100165.66
2017-07-31T05:44:18.420Z,100164.34
2017-07-31T05:46:47.483Z,100168.55
2017-07-31T05:49:16.564Z,100174.55
2017-07-31T05:51:45.604Z,100170.35
2017-07-31T05:54:14.748Z,100172.86
2017-07-31T05:56:43.831Z,100170.75
2017-07-31T05:59:12.884Z,100171.63
2017-07-31T06:01:41.965Z,100178.97
2017-07-31T06:04:11.055Z,100182.61
2017-07-31T06:06:40.118Z,100176.08
2017-07-31T06:09:09.175Z,100166.98
2017-07-31T06:11:38.226Z,100166.67
2017-07-31T06:14:07.337Z,100168.73
2017-07-31T06:16:36.364Z,100173.50
2017-07-31T06:19:05.430Z,100174.37
2017-07-31T06:21:34.467Z,100180.09
2017-07-31T06:24:03.564Z,100183.47
2017-07-31T06:26:32.607Z,100188.30
2017-07-31T06:29:01.696Z,100197.03
2017-07-31T06:31:30.751Z,100190.59
2017-07-31T06:33:59.784Z,100184.34
2017-07-31T06:36:28.846Z,100177.90
2017-07-31T06:38:57.912Z,100189.73
2017-07-31T06:41:26.975Z,100190.09
2017-07-31T06:43:56.057Z,100195.01
2017-07-31T06:46:25.108Z,100202.17
2017-07-31T06:48:54.160Z,100201.98
2017-07-31T06:51:23.216Z,100202.37
2017-07-31T06:53:52.517Z,100200.20
2017-07-31T06:56:21.564Z,100203.55
2017-07-31T06:58:50.618Z,100206.31
2017-07-31T07:01:19.663Z,100208.31
2017-07-31T07:03:48.722Z,100213.06
2017-07-31T07:06:17.798Z,100212.28
2017-07-31T07:08:46.844Z,100215.63
2017-07-31T07:11:15.907Z,100214.02
2017-07-31T07:13:45.173Z,100212.07
2017-07-31T07:16:14.225Z,100212.22
2017-07-31T07:18:43.285Z,100210.98
2017-07-31T07:21:12.366Z,100212.73
2017-07-31T07:23:41.396Z,100208.95
2017-07-31T07:26:10.485Z,100204.78
2017-07-31T07:28:39.565Z,100209.13
2017-07-31T07:31:08.596Z,100210.08
2017-07-31T07:33:37.664Z,100206.91
2017-07-31T07:36:06.701Z,100208.66
2017-07-31T07:38:35.792Z,100214.44
2017-07-31T07:41:04.906Z,100204.14
2017-07-31T07:43:33.966Z,100204.59
2017-07-31T07:46:03.028Z,100201.12
2017-07-31T07:48:32.092Z,100199.58
2017-07-31T07:51:01.147Z,100197.72
2017-07-31T07:53:30.187Z,100206.83
2017-07-31T07:55:59.271Z,100205.49
2017-07-31T07:58:28.325Z,100199.46
2017-07-31T08:00:57.374Z,100209.25
2017-07-31T08:03:26.412Z,100211.18
2017-07-31T08:05:55.477Z,100213.23
2017-07-31T08:08:24.540Z,100219.94
2017-07-31T08:10:53.588Z,100208.89
2017-07-31T08:13:22.663Z,100206.26
2017-07-31T08:15:51.711Z,100211.36
2017-07-31T08:18:20.775Z,100206.91
2017-07-31T08:20:49.827Z,100206.84
2017-07-31T08:23:18.914Z,100209.69
2017-07-31T08:25:47.976Z,100210.50
2017-07-31T08:28:17.043Z,100205.53
2017-07-31T08:30:46.130Z,100203.02
2017-07-31T08:33:15.215Z,100201.38
2017-07-31T08:35:44.264Z,100206.42
2017-07-31T08:38:13.379Z,100214.69
2017-07-31T08:40:42.433Z,100210.65
2017-07-31T08:43:11.511Z,100208.67
2017-07-31T08:45:40.559Z,100213.38
2017-07-31T08:48:09.700Z,100208.17
2017-07-31T08:50:38.793Z,100217.14
2017-07-31T08:53:07.835Z,100218.35
2017-07-31T08:55:36.906Z,100217.02
2017-07-31T08:58:05.982Z,100219.31
2017-07-31T09:00:35.053Z,100216.48
2017-07-31T09:03:04.358Z,100220.53
2017-07-31T09:05:33.387Z,100221.92
2017-07-31T09:08:02.470Z,100217.02
2017-07-31T09:10:31.530Z,100214.69
2017-07-31T09:13:00.596Z,100208.36
2017-07-31T09:15:29.670Z,100213.55
2017-07-31T09:17:58.735Z,100224.98
2017-07-31T09:20:27.805Z,100222.36
2017-07-31T09:22:56.867Z,100219.45
2017-07-31T09:25:25.941Z,100221.72
2017-07-31T09:27:54.982Z,100219.35
2017-07-31T09:30:24.056Z,100218.61
2017-07-31T09:32:53.115Z,100222.61
2017-07-31T09:35:22.216Z,100215.17
2017-07-31T09:37:51.289Z,100208.30
2017-07-31T09:40:20.329Z,100208.56
2017-07-31T09:42:49.431Z,100216.86
2017-07-31T09:45:18.664Z,100209.56
2017-07-31T09:47:47.786Z,100213.06
2017-07-31T09:50:16.856Z,100207.20
2017-07-31T09:52:45.907Z,100215.63
2017-07-31T09:55:15.010Z,100217.15
2017-07-31T09:57:44.099Z,100209.71
2017-07-31T10:00:13.157Z,100211.11
2017-07-31T10:02:42.224Z,100219.83
2017-07-31T10:05:11.290Z,100226.04
2017-07-31T10:07:40.359Z,100233.80
2017-07-31T10:10:09.462Z,100236.41
2017-07-31T10:12:38.514Z,100240.55
2017-07-31T10:15:07.602Z,100240.83
2017-07-31T10:17:36.632Z,100245.63
2017-07-31T10:20:05.748Z,100250.64
2017-07-31T10:22:34.772Z,100254.17
2017-07-31T10:25:03.843Z,100253.00
2017-07-31T10:27:32.936Z,100251.73
2017-07-31T10:30:02.256Z,100262.48
2017-07-31T10:32:31.315Z,100255.79
2017-07-31T10:35:00.381Z,100264.88
2017-07-31T10:37:29.421Z,100257.75
2017-07-31T10:39:58.487Z,100264.52
2017-07-31T10:42:27.535Z,100263.33
2017-07-31T10:44:56.592Z,100271.29
2017-07-31T10:47:25.637Z,100272.25
2017-07-31T10:49:54.704Z,100272.86
2017-07-31T10:52:23.751Z,100272.34
2017-07-31T10:54:52.812Z,100274.91
2017-07-31T10:57:21.847Z,100280.96
2017-07-31T10:59:50.918Z,100287.49
2017-07-31T11:02:19.953Z,100282.69
2017-07-31T11:04:48.993Z,100288.69
2017-07-31T11:07:18.056Z,100289.34
2017-07-31T11:09:47.113Z,100286.16
2017-07-31T11:12:16.171Z,100291.52
2017-07-31T11:14:45.219Z,100296.05
2017-07-31T11:17:14.554Z,100304.64
2017-07-31T11:19:43.698Z,100297.77
2017-07-31T11:22:13.366Z,100302.16
2017-07-31T11:24:42.445Z,100302.77
2017-07-31T11:27:11.496Z,100301.39
2017-07-31T11:29:40.550Z,100306.13
2017-07-31T11:32:09.638Z,100305.36
2017-07-31T11:34:38.742Z,100307.95
2017-07-31T11:37:08.049Z,100308.34
2017-07-31T11:39:37.106Z,100304.73
2017-07-31T11:42:06.294Z,100311.45
2017-07-31T11:44:35.316Z,100302.84
2017-07-31T11:47:04.647Z,100306.42
2017-07-31T11:49:33.692Z,100306.96
2017-07-31T11:52:02.781Z,100311.27
2017-07-31T11:54:31.812Z,100305.39
2017-07-31T11:57:00.844Z,100311.70
2017-07-31T11:59:29.896Z,100321.50
2017-07-31T12:01:58.952Z,100324.89
2017-07-31T12:04:28.278Z,100323.50
2017-07-31T12:06:57.324Z,100318.06
2017-07-31T12:09:26.343Z,100332.56
2017-07-31T12:11:55.636Z,100329.12
2017-07-31T12:14:24.684Z,100328.86
2017-07-31T12:16:53.888Z,100335.16
2017-07-31T12:19:22.968Z,100332.45
2017-07-31T12:21:52.012Z,100327.42
2017-07-31T12:24:21.068Z,100323.38
2017-07-31T12:26:50.183Z,100312.97
2017-07-31T12:29:19.234Z,100305.30
2017-07-31T12:31:48.312Z,100317.57
2017-07-31T12:34:17.366Z,100306.69
2017-07-31T12:36:46.412Z,100310.66
2017-07-31T12:39:15.506Z,100309.48
2017-07-31T12:41:44.536Z,100311.23
2017-07-31T12:44:13.621Z,100315.39
2017-07-31T12:46:42.664Z,100318.35
2017-07-31T12:49:11.729Z,100311.72
2017-07-31T12:51:40.793Z,100314.64
2017-07-31T12:54:09.845Z,100318.02
2017-07-31T12:56:39.117Z,100330.71
2017-07-31T12:59:08.163Z,100333.51
2017-07-31T13:01:37.224Z,100339.94
2017-07-31T13:04:06.324Z,100337.72
2017-07-31T13:06:35.338Z,100334.59
2017-07-31T13:09:04.383Z,100327.58
2017-07-31T13:11:33.478Z,100329.77
2017-07-31T13:14:03.413Z,100319.96
2017-07-31T13:16:32.488Z,100322.98
2017-07-31T13:19:01.531Z,100325.30
2017-07-31T13:21:30.595Z,100325.85
2017-07-31T13:23:59.680Z,100311.50
2017-07-31T13:26:28.727Z,100330.08
2017-07-31T13:28:57.832Z,100322.58
2017-07-31T13:31:26.865Z,100316.53
2017-07-31T13:33:55.928Z,100316.53
2017-07-31T13:36:24.994Z,100316.09
2017-07-31T13:38:54.063Z,100333.20
2017-07-31T13:41:23.143Z,100329.25
2017-07-31T13:43:52.209Z,100315.78
2017-07-31T13:46:21.262Z,100320.94
2017-07-31T13:48:50.311Z,100319.98
2017-07-31T13:51:19.364Z,100322.72
2017-07-31T13:53:48.447Z,100331.56
2017-07-31T13:56:17.531Z,100317.72
2017-07-31T13:58:46.600Z,100310.88
2017-07-31T14:01:15.660Z,100315.75
2017-07-31T14:03:44.703Z,100311.48
2017-07-31T14:06:13.791Z,100310.17
2017-07-31T14:08:42.848Z,100322.94
2017-07-31T14:11:11.917Z,100326.78
2017-07-31T14:13:40.961Z,100333.16
2017-07-31T14:16:10.058Z,100327.86
2017-07-31T14:18:39.123Z,100317.33
2017-07-31T14:21:08.166Z,100309.14
2017-07-31T14:23:37.253Z,100304.66
2017-07-31T14:26:06.595Z,100295.50
2017-07-31T14:28:35.663Z,100292.33
2017-07-31T14:31:04.729Z,100283.61
2017-07-31T14:33:33.772Z,100271.37
2017-07-31T14:36:02.851Z,100274.78
2017-07-31T14:38:31.896Z,100272.28
2017-07-31T14:41:01.232Z,100279.41
2017-07-31T14:43:30.269Z,100282.79
2017-07-31T14:45:59.465Z,100288.01
2017-07-31T14:48:28.522Z,100284.10
2017-07-31T14:50:57.571Z,100276.50
2017-07-31T14:53:26.658Z,100291.25
2017-07-31T14:55:55.703Z,100299.03
2017-07-31T14:58:24.756Z,100290.67
2017-07-31T15:00:53.849Z,100281.14
2017-07-31T15:03:22.899Z,100281.69
2017-07-31T15:05:51.970Z,100276.82
2017-07-31T15:08:21.031Z,100278.69
2017-07-31T15:10:50.088Z,100271.77
2017-07-31T15:13:19.139Z,100277.91
2017-07-31T15:15:48.233Z,100273.91
2017-07-31T15:18:17.316Z,100269.37
2017-07-31T15:20:46.382Z,100265.93
2017-07-31T15:23:15.442Z,100267.32
2017-07-31T15:25:44.536Z,100252.72
2017-07-31T15:28:13.616Z,100241.81
2017-07-31T15:30:42.694Z,100238.89
2017-07-31T15:33:11.782Z,100237.61
2017-07-31T15:35:40.846Z,100241.42
2017-07-31T15:38:09.932Z,100227.94
2017-07-31T15:40:38.996Z,100226.94
2017-07-31T15:43:08.051Z,100233.65
2017-07-31T15:45:37.285Z,100226.63
2017-07-31T15:48:06.343Z,100225.94
2017-07-31T15:50:35.379Z,100226.98
2017-07-31T15:53:04.451Z,100227.98
2017-07-31T15:55:33.545Z,100223.69
2017-07-31T15:58:02.605Z,100219.49
2017-07-31T16:00:31.648Z,100219.61
2017-07-31T16:03:00.712Z,100208.12
2017-07-31T16:05:29.792Z,100209.21
2017-07-31T16:07:58.866Z,100201.58
2017-07-31T16:10:27.935Z,100197.70
2017-07-31T16:12:57.021Z,100204.21
2017-07-31T16:15:26.076Z,100212.23
2017-07-31T16:17:55.134Z,100216.98
2017-07-31T16:20:24.187Z,100223.06
2017-07-31T16:22:53.240Z,100227.55
2017-07-31T16:25:22.296Z,100226.87
2017-07-31T16:27:51.356Z,100233.00
2017-07-31T16:30:20.439Z,100226.69
2017-07-31T16:32:49.531Z,100219.35
2017-07-31T16:35:18.590Z,100217.33
2017-07-31T16:37:47.716Z,100203.64
2017-07-31T16:40:34.340Z,100207.83
2017-07-31T16:43:20.940Z,100221.69
2017-07-31T16:45:50.004Z,100217.88
2017-07-31T16:48:30.784Z,100209.84
2017-07-31T16:50:59.885Z,100210.91
2017-07-31T16:53:28.936Z,100200.93
2017-07-31T16:55:57.983Z,100200.74
2017-07-31T16:58:27.075Z,100188.09
2017-07-31T17:00:56.177Z,100193.73
2017-07-31T17:03:25.203Z,100193.86
2017-07-31T17:05:54.304Z,100208.50
2017-07-31T17:08:23.436Z,100206.11
2017-07-31T17:10:52.496Z,100206.81
2017-07-31T17:13:21.547Z,100210.05
2017-07-31T17:15:50.636Z,100198.66
2017-07-31T17:18:19.705Z,100205.64
2017-07-31T17:20:48.772Z,100195.05
2017-07-31T17:23:17.824Z,100184.03
2017-07-31T17:25:46.916Z,100199.47
2017-07-31T17:28:15.923Z,100199.08
2017-07-31T17:30:44.996Z,100187.77
2017-07-31T17:33:14.321Z,100188.99
2017-07-31T17:35:43.378Z,100187.83
2017-07-31T17:38:12.492Z,100189.77
2017-07-31T17:40:41.531Z,100200.23
2017-07-31T17:43:10.838Z,100204.51
2017-07-31T17:45:39.888Z,100205.91
2017-07-31T17:48:08.963Z,100196.33
2017-07-31T17:50:38.032Z,100187.91
2017-07-31T17:53:07.116Z,100191.67
2017-07-31T17:55:36.184Z,100198.94
2017-07-31T17:58:05.285Z,100203.47
2017-07-31T18:00:34.343Z,100202.60
2017-07-31T18:03:03.434Z,100202.52
2017-07-31T18:05:32.490Z,100206.66
2017-07-31T18:08:01.573Z,100205.88
2017-07-31T18:10:30.644Z,100204.99
2017-07-31T18:12:59.715Z,100210.25
2017-07-31T18:15:28.776Z,100207.86
2017-07-31T18:17:57.859Z,100211.22
2017-07-31T18:20:26.923Z,100208.30
2017-07-31T18:22:55.985Z,100217.06
2017-07-31T18:25:25.067Z,100225.03
2017-07-31T18:27:54.126Z,100217.76
2017-07-31T18:30:23.237Z,100208.36
2017-07-31T18:32:52.292Z,100201.09
2017-07-31T18:35:21.362Z,100198.84
2017-07-31T18:37:50.422Z,100202.48
2017-07-31T18:40:19.455Z,100199.59
2017-07-31T18:42:48.523Z,100209.66
2017-07-31T18:45:18.117Z,100214.31
2017-07-31T18:47:47.171Z,100207.58
2017-07-31T18:50:16.224Z,100210.33
2017-07-31T18:52:45.302Z,100217.44
2017-07-31T18:55:14.370Z,100225.76
2017-07-31T18:57:44.304Z,100229.20
2017-07-31T19:00:13.369Z,100230.45
2017-07-31T19:02:42.428Z,100229.27
2017-07-31T19:05:11.608Z,100237.47
2017-07-31T19:07:40.707Z,100236.16
2017-07-31T19:10:09.780Z,100248.08
2017-07-31T19:12:38.824Z,100247.71
2017-07-31T19:15:07.928Z,100246.73
2017-07-31T19:17:36.982Z,100247.02
2017-07-31T19:20:06.053Z,100250.67
2017-07-31T19:22:35.476Z,100246.98
2017-07-31T19:25:04.509Z,100248.39
2017-07-31T19:27:33.551Z,100249.81
2017-07-31T19:30:02.637Z,100241.76
2017-07-31T19:32:31.677Z,100246.38
2017-07-31T19:35:00.741Z,100242.07
2017-07-31T19:37:29.874Z,100244.87
2017-07-31T19:39:58.904Z,100256.98
2017-07-31T19:42:27.946Z,100248.09
2017-07-31T19:44:57.033Z,100248.72
2017-07-31T19:47:26.095Z,100252.47
2017-07-31T19:49:55.160Z,100257.48
2017-07-31T19:52:24.208Z,100262.62
2017-07-31T19:54:53.314Z,100271.34
2017-07-31T19:57:22.355Z,100270.95
2017-07-31T19:59:51.426Z,100274.90
2017-07-31T20:02:20.489Z,100262.03
2017-07-31T20:04:50.181Z,100273.52
2017-07-31T20:07:19.250Z,100265.01
2017-07-31T20:09:48.321Z,100265.01
2017-07-31T20:12:17.374Z,100271.72
2017-07-31T20:14:46.441Z,100273.93
2017-07-31T20:17:15.689Z,100268.00
2017-07-31T20:19:44.769Z,100277.55
2017-07-31T20:22:13.831Z,100278.36
2017-07-31T20:24:42.879Z,100274.20
2017-07-31T20:27:11.950Z,100265.69
2017-07-31T20:29:41.043Z,100253.24
2017-07-31T20:32:10.127Z,100255.05
2017-07-31T20:34:39.215Z,100258.62
2017-07-31T20:37:08.315Z,100248.72
2017-07-31T20:39:37.363Z,100255.12
2017-07-31T20:42:06.462Z,100280.69
2017-07-31T20:44:35.515Z,100284.29
2017-07-31T20:47:04.829Z,100283.88
2017-07-31T20:49:33.920Z,100289.02
2017-07-31T20:52:02.973Z,100281.31
2017-07-31T20:54:32.048Z,100275.75
2017-07-31T20:57:01.116Z,100284.06
2017-07-31T20:59:30.224Z,100278.34
2017-07-31T21:01:59.264Z,100280.30
2017-07-31T21:04:28.359Z,100285.44
2017-07-31T21:06:57.411Z,100286.04
2017-07-31T21:09:26.489Z,100286.61
2017-07-31T21:11:55.554Z,100281.05
2017-07-31T21:14:24.600Z,100271.95
2017-07-31T21:16:53.675Z,100263.44
2017-07-31T21:19:22.728Z,100261.27
2017-07-31T21:21:51.805Z,100251.75
2017-07-31T21:24:20.893Z,100248.62
2017-07-31T21:26:49.970Z,100240.91
2017-07-31T21:29:19.031Z,100237.16
2017-07-31T21:31:48.085Z,100248.05
2017-07-31T21:34:17.173Z,100251.65
2017-07-31T21:36:46.263Z,100259.98
2017-07-31T21:39:15.319Z,100255.84
2017-07-31T21:41:44.387Z,100254.52
2017-07-31T21:44:13.488Z,100258.68
2017-07-31T21:46:42.573Z,100277.87
2017-07-31T21:49:11.655Z,100286.37
2017-07-31T21:51:40.698Z,100286.78
2017-07-31T21:54:09.800Z,100291.13
2017-07-31T21:56:38.854Z,100291.51
2017-07-31T21:59:07.911Z,100291.09
2017-07-31T22:01:36.987Z,100301.38
2017-07-31T22:04:06.044Z,100302.35
2017-07-31T22:06:35.119Z,100293.86
2017-07-31T22:09:04.245Z,100294.05
2017-07-31T22:11:33.271Z,100292.88
2017-07-31T22:14:02.335Z,100302.95
2017-07-31T22:16:36.665Z,100308.08
2017-07-31T22:19:05.737Z,100300.98
2017-07-31T22:21:40.163Z,100286.56
2017-07-31T22:24:09.251Z,100280.43
2017-07-31T22:26:38.304Z,100274.88
2017-07-31T22:29:07.392Z,100270.34
2017-07-31T22:31:36.442Z,100258.29
2017-07-31T22:34:05.492Z,100248.80
2017-07-31T22:36:34.577Z,100244.64
2017-07-31T22:39:03.660Z,100240.33
2017-07-31T22:41:32.938Z,100247.02
2017-07-31T22:44:01.997Z,100250.78
2017-07-31T22:46:31.056Z,100255.92
2017-07-31T22:49:00.111Z,100248.23
2017-07-31T22:51:29.188Z,100235.58
2017-07-31T22:53:58.253Z,100230.45
2017-07-31T22:56:27.306Z,100244.67
2017-07-31T22:58:56.361Z,100261.84
2017-07-31T23:01:25.472Z,100279.22
2017-07-31T23:03:54.537Z,100277.45
2017-07-31T23:06:50.650Z,100269.56
2017-07-31T23:09:19.736Z,100268.97
2017-07-31T23:11:48.824Z,100264.61
2017-07-31T23:14:18.660Z,100255.91
2017-07-31T23:16:47.714Z,100240.32
2017-07-31T23:19:17.525Z,100245.24
2017-07-31T23:21:46.611Z,100255.91
2017-07-31T23:24:15.660Z,100266.16
2017-07-31T23:26:44.715Z,100264.20
2017-07-31T23:29:13.775Z,100265.36
2017-07-31T23:31:42.845Z,100270.12
2017-07-31T23:34:11.916Z,100277.00
2017-07-31T23:36:41.766Z,100289.55
2017-07-31T23:39:10.864Z,100301.84
2017-07-31T23:41:39.924Z,100302.45
2017-07-31T23:44:09.743Z,100310.98
2017-07-31T23:46:39.088Z,100308.03
2017-07-31T23:49:08.136Z,100309.23
2017-07-31T23:51:37.213Z,100308.05
2017-07-31T23:54:07.041Z,100299.95
2017-07-31T23:56:36.095Z,100284.36
2017-07-31T23:59:05.144Z,100257.50
